Time;durP1;ratioP1;P1;durP2;ratioP2;P2;SDS_P1;SDS_P2;PMS_P1;PMS_P2;Temp;Humidity;BMP_temperature;BMP_pressure;BME280_temperature;BME280_humidity;BME280_pressure;Samples;Min_cycle;Max_cycle;Signal;HPM_P1;HPM_P2
2023/03/23 00:01:57;;;;;;;7.15;3.25;;;;;;;10.13;100.00;100187.78;5054500;28;20037;-71
2023/03/23 00:04:25;;;;;;;7.53;3.40;;;;;;;10.10;100.00;100196.91;5055179;28;20106;-70
2023/03/23 00:06:51;;;;;;;5.60;3.25;;;;;;;10.09;100.00;100192.59;5054367;28;20159;-70
2023/03/23 00:09:17;;;;;;;7.93;2.92;;;;;;;10.11;100.00;100189.78;5054827;28;20041;-70
2023/03/23 00:11:42;;;;;;;7.00;3.50;;;;;;;10.04;100.00;100177.06;5037149;28;20035;-72
2023/03/23 00:14:12;;;;;;;8.10;3.20;;;;;;;10.03;100.00;100179.88;5054572;28;20037;-71
2023/03/23 00:16:40;;;;;;;5.70;3.15;;;;;;;10.04;100.00;100181.56;5054878;28;20110;-71
2023/03/23 00:19:08;;;;;;;9.23;3.08;;;;;;;10.05;100.00;100183.25;5037348;28;20080;-70
2023/03/23 00:21:38;;;;;;;5.00;3.00;;;;;;;10.03;100.00;100177.22;5054898;28;20529;-70
2023/03/23 00:24:18;;;;;;;7.82;2.80;;;;;;;10.04;100.00;100160.31;5054137;28;20484;-70
2023/03/23 00:26:48;;;;;;;8.52;3.17;;;;;;;10.02;100.00;100164.94;5054842;28;20025;-70
2023/03/23 00:29:19;;;;;;;5.93;2.80;;;;;;;10.00;100.00;100153.63;5054790;28;20033;-71
2023/03/23 00:31:48;;;;;;;7.82;2.90;;;;;;;9.95;100.00;100148.75;5054498;28;20021;-70
2023/03/23 00:34:19;;;;;;;4.32;2.50;;;;;;;9.92;100.00;100146.41;5054586;28;20461;-69
2023/03/23 00:36:46;;;;;;;6.45;2.30;;;;;;;9.92;100.00;100141.09;5054315;28;20056;-70
2023/03/23 00:39:11;;;;;;;7.80;2.58;;;;;;;9.89;100.00;100134.25;5053758;28;20059;-70
2023/03/23 00:41:38;;;;;;;8.77;2.67;;;;;;;9.85;100.00;100143.53;5054398;28;20037;-71
2023/03/23 00:44:03;;;;;;;9.70;2.85;;;;;;;9.88;100.00;100137.06;5053977;28;20090;-69
2023/03/23 00:46:29;;;;;;;5.50;2.45;;;;;;;9.89;100.00;100146.72;5017776;28;20045;-69
2023/03/23 00:48:56;;;;;;;7.78;2.70;;;;;;;9.87;100.00;100143.38;5014099;28;20034;-69
2023/03/23 00:51:23;;;;;;;6.70;2.88;;;;;;;9.88;100.00;100140.56;5014411;28;20121;-69
2023/03/23 00:53:48;;;;;;;8.93;2.80;;;;;;;9.87;100.00;100136.22;5014542;28;20026;-69
2023/03/23 00:56:14;;;;;;;7.93;2.33;;;;;;;9.88;100.00;100153.00;5013952;28;20133;-69
2023/03/23 00:58:40;;;;;;;5.97;2.20;;;;;;;9.96;100.00;100144.28;5013202;28;20042;-69
2023/03/23 01:01:05;;;;;;;4.00;2.20;;;;;;;10.01;100.00;100142.81;5013855;28;20352;-69
2023/03/23 01:03:31;;;;;;;4.97;2.70;;;;;;;10.02;100.00;100149.00;5013817;28;20040;-70
2023/03/23 01:05:57;;;;;;;7.15;2.58;;;;;;;10.00;100.00;100138.53;5013507;28;20371;-68
2023/03/23 01:08:23;;;;;;;6.90;2.38;;;;;;;9.98;100.00;100129.84;5014249;28;20045;-69
2023/03/23 01:10:50;;;;;;;8.05;2.53;;;;;;;9.98;100.00;100119.22;5014055;28;20026;-69
2023/03/23 01:13:16;;;;;;;7.57;2.50;;;;;;;9.94;100.00;100109.91;5013752;28;20092;-69
2023/03/23 01:15:42;;;;;;;6.68;2.50;;;;;;;9.98;100.00;100118.41;5013864;28;20084;-69
2023/03/23 01:18:08;;;;;;;6.47;2.20;;;;;;;9.96;100.00;100110.56;5012373;28;20033;-70
2023/03/23 01:20:36;;;;;;;5.15;2.80;;;;;;;9.92;100.00;100103.88;5013987;28;20041;-69
2023/03/23 01:23:01;;;;;;;8.68;2.67;;;;;;;9.92;100.00;100111.84;5013232;28;20029;-69
2023/03/23 01:25:32;;;;;;;6.05;3.00;;;;;;;9.93;100.00;100096.75;5014188;28;20117;-69
2023/03/23 01:27:58;;;;;;;4.10;2.50;;;;;;;9.93;100.00;100108.22;5013164;28;20462;-70
2023/03/23 01:30:24;;;;;;;6.68;2.63;;;;;;;9.88;100.00;100100.72;5013584;28;20033;-70
2023/03/23 01:32:51;;;;;;;4.95;2.38;;;;;;;9.86;100.00;100101.84;5013473;28;20038;-69
2023/03/23 01:35:17;;;;;;;7.35;2.47;;;;;;;9.84;100.00;100093.19;5013303;28;20560;-69
2023/03/23 01:37:42;;;;;;;3.88;1.98;;;;;;;9.91;100.00;100106.69;5013406;28;20038;-69
2023/03/23 01:40:09;;;;;;;5.10;2.38;;;;;;;9.90;100.00;100103.22;5013309;28;20036;-69
2023/03/23 01:42:37;;;;;;;7.30;2.50;;;;;;;9.87;100.00;100093.72;5013632;28;20038;-70
2023/03/23 01:45:34;;;;;;;5.97;2.35;;;;;;;9.85;100.00;100094.84;5019303;28;20076;-69
2023/03/23 01:48:06;;;;;;;7.03;2.17;;;;;;;9.85;100.00;100086.88;5040219;28;20041;-69
2023/03/23 01:50:38;;;;;;;6.72;2.20;;;;;;;9.81;100.00;100078.41;5053285;28;20067;-69
2023/03/23 01:53:08;;;;;;;3.97;2.10;;;;;;;9.82;100.00;100082.72;5034817;28;20469;-69
2023/03/23 01:55:38;;;;;;;7.93;2.75;;;;;;;9.82;100.00;100081.88;5053044;28;20025;-69
2023/03/23 01:58:05;;;;;;;9.32;2.35;;;;;;;9.80;100.00;100081.19;5052487;28;20365;-69
2023/03/23 02:00:31;;;;;;;5.78;2.22;;;;;;;9.82;100.00;100079.22;5068320;28;20457;-70
2023/03/23 02:02:57;;;;;;;4.95;2.40;;;;;;;9.84;100.00;100083.41;5052950;28;20051;-69
2023/03/23 02:05:33;;;;;;;5.10;2.50;;;;;;;9.87;100.00;100082.25;5052163;28;20457;-70
2023/03/23 02:08:02;;;;;;;6.40;2.38;;;;;;;9.87;100.00;100085.75;5052319;28;20029;-70
2023/03/23 02:10:30;;;;;;;5.35;2.25;;;;;;;9.88;100.00;100076.81;5053006;28;20031;-69
2023/03/23 02:12:57;;;;;;;5.75;2.20;;;;;;;9.93;100.00;100081.66;5052800;28;20449;-70
2023/03/23 02:15:27;;;;;;;5.10;2.05;;;;;;;9.95;100.00;100084.16;5051518;28;20064;-71
2023/03/23 02:18:04;;;;;;;3.55;2.10;;;;;;;9.95;100.00;100073.53;5034904;28;20029;-70
2023/03/23 02:20:51;;;;;;;3.83;2.25;;;;;;;9.97;100.00;100084.81;5034422;28;20032;-70
2023/03/23 02:23:24;;;;;;;4.32;2.00;;;;;;;9.97;100.00;100085.69;5052133;28;20060;-70
2023/03/23 02:26:16;;;;;;;5.32;2.17;;;;;;;9.98;100.00;100097.13;5052483;28;20119;-70
2023/03/23 02:29:16;;;;;;;5.55;2.13;;;;;;;9.98;100.00;100083.84;5052508;28;20039;-70
2023/03/23 02:32:06;;;;;;;4.68;2.15;;;;;;;9.99;100.00;100088.19;5038926;28;20045;-70
2023/03/23 02:34:41;;;;;;;4.18;2.03;;;;;;;9.96;100.00;100068.06;5052198;28;20636;-70
2023/03/23 02:37:21;;;;;;;9.88;2.40;;;;;;;9.94;100.00;100070.03;5051812;28;20111;-70
2023/03/23 02:39:55;;;;;;;5.25;2.38;;;;;;;9.92;100.00;100076.50;5052473;28;20106;-69
2023/03/23 02:42:31;;;;;;;4.78;1.92;;;;;;;9.93;100.00;100079.00;5051968;28;20128;-69
2023/03/23 02:45:02;;;;;;;3.80;2.00;;;;;;;9.96;100.00;100086.66;5052257;28;20024;-69
2023/03/23 02:47:29;;;;;;;4.78;2.20;;;;;;;9.95;100.00;100079.66;5051935;28;20025;-69
2023/03/23 02:49:58;;;;;;;4.90;2.17;;;;;;;9.86;100.00;100073.44;5052474;28;20048;-69
2023/03/23 02:52:29;;;;;;;3.80;1.98;;;;;;;9.73;100.00;100073.00;5051388;28;20388;-69
2023/03/23 02:54:56;;;;;;;6.57;2.38;;;;;;;9.63;100.00;100085.50;5052571;28;20082;-69
2023/03/23 02:57:23;;;;;;;7.80;2.10;;;;;;;9.56;100.00;100084.47;5051877;28;20033;-69
2023/03/23 02:59:49;;;;;;;6.32;2.00;;;;;;;9.52;100.00;100082.13;5052305;28;20159;-69
2023/03/23 03:02:18;;;;;;;8.73;2.55;;;;;;;9.52;100.00;100071.50;5051751;28;20418;-69
2023/03/23 03:05:05;;;;;;;12.60;2.75;;;;;;;9.53;100.00;100078.44;5052081;28;20071;-70
2023/03/23 03:07:37;;;;;;;7.70;2.20;;;;;;;9.42;100.00;100077.84;5051662;28;20040;-70
2023/03/23 03:10:23;;;;;;;4.65;2.00;;;;;;;9.29;100.00;100072.91;5052197;28;20025;-71
2023/03/23 03:12:57;;;;;;;3.95;1.83;;;;;;;9.23;100.00;100097.41;5052209;28;20468;-69
2023/03/23 03:15:55;;;;;;;6.47;2.10;;;;;;;9.13;100.00;100105.41;5051696;28;20492;-70
2023/03/23 03:18:32;;;;;;;5.35;2.00;;;;;;;9.10;100.00;100081.81;5047099;28;20036;-69
2023/03/23 03:21:03;;;;;;;3.63;1.88;;;;;;;9.08;100.00;100097.88;5052141;28;20473;-71
2023/03/23 03:23:30;;;;;;;8.50;2.13;;;;;;;9.09;100.00;100114.63;5051579;28;20033;-70
2023/03/23 03:25:58;;;;;;;7.40;2.05;;;;;;;9.08;100.00;100116.47;5052760;28;20032;-69
2023/03/23 03:28:24;;;;;;;9.77;2.65;;;;;;;9.08;100.00;100099.72;5055130;28;20477;-70
2023/03/23 03:31:00;;;;;;;13.35;2.80;;;;;;;9.10;100.00;100087.13;5055784;28;20055;-69
2023/03/23 03:33:30;;;;;;;6.70;2.20;;;;;;;9.10;100.00;100095.06;5055021;28;20025;-70
2023/03/23 03:35:58;;;;;;;8.95;2.58;;;;;;;9.06;100.00;100107.81;5055668;28;20021;-70
2023/03/23 03:38:24;;;;;;;8.05;2.63;;;;;;;9.05;100.00;100098.19;5055163;28;20033;-70
2023/03/23 03:40:49;;;;;;;11.05;2.97;;;;;;;8.99;100.00;100096.94;5055272;28;20093;-70
2023/03/23 03:43:15;;;;;;;6.45;2.65;;;;;;;8.98;100.00;100118.31;5054933;28;20032;-70
2023/03/23 03:45:41;;;;;;;4.63;2.50;;;;;;;8.96;100.00;100102.53;5055601;28;20056;-70
2023/03/23 03:48:07;;;;;;;8.13;2.80;;;;;;;8.94;100.00;100101.00;5055120;28;20489;-70
2023/03/23 03:50:32;;;;;;;8.25;2.22;;;;;;;8.90;100.00;100099.66;5037030;28;20107;-69
2023/03/23 03:52:58;;;;;;;5.20;2.15;;;;;;;8.90;100.00;100108.44;5055305;28;20175;-70
2023/03/23 03:55:24;;;;;;;8.00;2.58;;;;;;;8.87;100.00;100105.22;5054842;28;20032;-69
2023/03/23 03:57:49;;;;;;;16.92;2.92;;;;;;;8.89;100.00;100103.28;5055210;28;20112;-70
2023/03/23 04:00:15;;;;;;;7.30;2.38;;;;;;;8.87;100.00;100106.09;5054990;28;20036;-71
2023/03/23 04:02:43;;;;;;;10.95;3.10;;;;;;;8.85;100.00;100117.81;5055042;28;20037;-70
2023/03/23 04:05:09;;;;;;;7.68;2.22;;;;;;;8.83;100.00;100110.81;5055400;28;20036;-70
2023/03/23 04:07:41;;;;;;;11.55;2.78;;;;;;;8.79;100.00;100122.72;5054654;28;20029;-71
2023/03/23 04:10:07;;;;;;;11.93;2.80;;;;;;;8.77;100.00;100123.84;5055255;28;20039;-71
2023/03/23 04:12:34;;;;;;;9.75;2.58;;;;;;;8.76;100.00;100120.38;5054504;28;20029;-70
2023/03/23 04:14:59;;;;;;;5.85;2.65;;;;;;;8.74;100.00;100124.97;5054925;28;20043;-70
2023/03/23 04:17:27;;;;;;;12.80;2.88;;;;;;;8.75;100.00;100123.16;5054642;28;20041;-71
2023/03/23 04:19:57;;;;;;;12.13;3.10;;;;;;;8.75;100.00;100131.13;5055018;28;20025;-71
2023/03/23 04:22:29;;;;;;;15.70;2.97;;;;;;;8.78;100.00;100129.00;5054493;28;20064;-69
2023/03/23 04:24:59;;;;;;;11.43;2.53;;;;;;;8.80;100.00;100127.03;5054754;28;20071;-70
2023/03/23 04:27:27;;;;;;;12.13;2.38;;;;;;;8.86;100.00;100132.75;5054364;28;20029;-70
2023/03/23 04:29:56;;;;;;;12.63;2.60;;;;;;;8.88;100.00;100142.22;5054676;28;20021;-70
2023/03/23 04:32:21;;;;;;;16.70;2.85;;;;;;;8.91;100.00;100135.78;5054075;28;20033;-70
2023/03/23 04:34:47;;;;;;;12.85;2.78;;;;;;;8.96;100.00;100146.81;5036764;28;20037;-70
2023/03/23 04:37:13;;;;;;;11.93;2.88;;;;;;;9.00;100.00;100132.25;5054032;28;20392;-70
2023/03/23 04:39:39;;;;;;;14.77;2.70;;;;;;;9.06;100.00;100134.34;5053694;28;20028;-70
2023/03/23 04:42:05;;;;;;;13.77;2.53;;;;;;;9.09;100.00;100136.72;5036859;28;20043;-72
2023/03/23 04:44:32;;;;;;;12.27;2.40;;;;;;;9.10;100.00;100145.50;5054064;28;20072;-68
2023/03/23 04:47:01;;;;;;;17.85;4.45;;;;;;;9.11;100.00;100152.50;5054678;28;20049;-70
2023/03/23 04:49:26;;;;;;;12.02;3.10;;;;;;;9.12;100.00;100152.34;5036187;28;20097;-71
2023/03/23 04:51:52;;;;;;;17.20;3.22;;;;;;;9.15;100.00;100143.22;5054183;28;20448;-70
2023/03/23 04:54:17;;;;;;;12.70;2.88;;;;;;;9.18;100.00;100154.41;5054324;28;20090;-70
2023/03/23 04:56:43;;;;;;;16.55;3.10;;;;;;;9.19;100.00;100149.94;5053715;28;20352;-70
2023/03/23 04:59:08;;;;;;;18.52;3.22;;;;;;;9.17;100.00;100154.56;5053649;28;20064;-71
2023/03/23 05:01:36;;;;;;;21.17;3.22;;;;;;;9.14;100.00;100150.38;5053684;28;20033;-70
2023/03/23 05:04:02;;;;;;;14.77;3.30;;;;;;;9.13;100.00;100153.16;5053973;28;20082;-71
2023/03/23 05:06:27;;;;;;;15.05;3.70;;;;;;;9.12;100.00;100154.13;5053460;28;20509;-70
2023/03/23 05:08:52;;;;;;;25.90;3.30;;;;;;;9.06;100.00;100163.56;5054017;28;20104;-71
2023/03/23 05:11:18;;;;;;;25.77;3.72;;;;;;;9.03;100.00;100166.47;5053544;28;20029;-70
2023/03/23 05:13:44;;;;;;;14.82;3.13;;;;;;;8.98;100.00;100156.28;5053518;28;20507;-70
2023/03/23 05:16:09;;;;;;;18.23;3.63;;;;;;;8.92;100.00;100156.03;5053845;28;20067;-71
2023/03/23 05:18:35;;;;;;;17.90;3.05;;;;;;;8.83;100.00;100160.41;5053389;28;20082;-71
2023/03/23 05:21:02;;;;;;;16.50;3.50;;;;;;;8.80;100.00;100158.88;5053768;28;20481;-70
2023/03/23 05:23:30;;;;;;;15.80;3.58;;;;;;;8.77;100.00;100164.47;5053269;28;20065;-71
2023/03/23 05:26:00;;;;;;;20.48;3.97;;;;;;;8.78;100.00;100170.63;5053666;28;20541;-70
2023/03/23 05:28:30;;;;;;;19.13;3.83;;;;;;;8.79;100.00;100178.44;5053549;28;20029;-71
2023/03/23 05:30:56;;;;;;;19.60;3.53;;;;;;;8.80;100.00;100169.47;5053338;28;20098;-70
2023/03/23 05:33:21;;;;;;;20.10;3.63;;;;;;;8.81;100.00;100180.94;5053271;28;20460;-71
2023/03/23 05:35:48;;;;;;;15.88;3.85;;;;;;;8.80;100.00;100184.56;5053419;28;20064;-71
2023/03/23 05:38:14;;;;;;;20.60;3.75;;;;;;;8.78;100.00;100190.00;5053465;28;20033;-70
2023/03/23 05:40:41;;;;;;;22.90;3.50;;;;;;;8.75;100.00;100189.47;5052610;28;20029;-70
2023/03/23 05:43:07;;;;;;;27.15;3.90;;;;;;;8.82;100.00;100194.06;5053304;28;20082;-70
2023/03/23 05:45:33;;;;;;;26.95;3.95;;;;;;;8.86;100.00;100191.94;5052528;28;20053;-69
2023/03/23 05:47:59;;;;;;;16.75;3.97;;;;;;;8.88;100.00;100205.06;5053136;28;20033;-70
2023/03/23 05:50:26;;;;;;;21.58;3.65;;;;;;;8.91;100.00;100212.72;5068461;28;20534;-70
2023/03/23 05:52:51;;;;;;;30.50;5.22;;;;;;;8.95;100.00;100198.22;5052854;28;20491;-70
2023/03/23 05:55:16;;;;;;;22.15;3.80;;;;;;;8.96;100.00;100208.69;5053252;28;20072;-69
2023/03/23 05:57:42;;;;;;;21.30;3.88;;;;;;;8.98;100.00;100189.97;5052574;28;20025;-69
2023/03/23 06:00:30;;;;;;;29.00;3.70;;;;;;;8.99;100.00;100203.09;5053137;28;20068;-69
2023/03/23 06:02:56;;;;;;;20.13;3.90;;;;;;;8.99;100.00;100203.09;5051766;28;20051;-69
2023/03/23 06:05:22;;;;;;;20.98;3.53;;;;;;;8.99;100.00;100218.19;5052868;28;20037;-69
2023/03/23 06:07:47;;;;;;;25.42;4.63;;;;;;;9.00;100.00;100215.38;5052100;28;20028;-68
2023/03/23 06:10:12;;;;;;;26.70;3.55;;;;;;;9.02;100.00;100201.97;5052892;28;20056;-69
2023/03/23 06:12:39;;;;;;;24.25;4.32;;;;;;;9.06;100.00;100218.41;5052195;28;20112;-69
2023/03/23 06:15:06;;;;;;;30.73;4.25;;;;;;;9.06;100.00;100213.13;5052950;28;20029;-68
2023/03/23 06:17:33;;;;;;;20.73;3.80;;;;;;;9.08;100.00;100233.22;5052527;28;20032;-69
2023/03/23 06:19:59;;;;;;;20.17;4.05;;;;;;;9.07;100.00;100236.03;5052205;28;20044;-69
2023/03/23 06:22:25;;;;;;;24.33;4.03;;;;;;;9.06;100.00;100232.53;5052784;28;20033;-69
2023/03/23 06:24:50;;;;;;;33.00;4.97;;;;;;;9.07;100.00;100246.63;5052127;28;20037;-69
2023/03/23 06:27:17;;;;;;;26.17;4.00;;;;;;;9.08;100.00;100229.75;5052766;28;20067;-68
2023/03/23 06:29:43;;;;;;;21.63;3.97;;;;;;;9.11;100.00;100238.25;5052313;28;20091;-70
2023/03/23 06:32:11;;;;;;;20.83;4.35;;;;;;;9.10;100.00;100239.22;5035111;28;20042;-70
2023/03/23 06:34:37;;;;;;;24.85;4.38;;;;;;;9.12;100.00;100234.63;5012041;28;20041;-70
2023/03/23 06:37:02;;;;;;;15.38;3.72;;;;;;;9.14;100.00;100255.72;5029841;28;20118;-70
2023/03/23 06:39:28;;;;;;;18.40;3.70;;;;;;;9.13;100.00;100256.69;5029716;28;20037;-70
2023/03/23 06:41:53;;;;;;;17.50;3.35;;;;;;;9.12;100.00;100255.84;5029172;28;20034;-70
2023/03/23 06:44:19;;;;;;;24.98;3.33;;;;;;;9.16;100.00;100251.91;5029202;28;20037;-69
2023/03/23 06:46:44;;;;;;;13.90;3.45;;;;;;;9.21;100.00;100256.81;5029184;28;20050;-69
2023/03/23 06:49:10;;;;;;;15.90;3.50;;;;;;;9.22;100.00;100254.97;5044884;28;20221;-69
2023/03/23 06:51:36;;;;;;;20.77;3.05;;;;;;;9.20;100.00;100236.53;5011681;28;20033;-68
2023/03/23 06:54:02;;;;;;;17.40;3.22;;;;;;;9.19;100.00;100240.16;5029232;28;20040;-69
2023/03/23 06:56:28;;;;;;;23.42;2.80;;;;;;;9.20;100.00;100249.81;5029256;28;20032;-69
2023/03/23 06:58:53;;;;;;;20.90;3.35;;;;;;;9.22;100.00;100261.13;5029336;28;20037;-69
2023/03/23 07:01:19;;;;;;;20.80;3.50;;;;;;;9.23;100.00;100272.59;5031108;28;20112;-70
2023/03/23 07:03:45;;;;;;;20.90;3.25;;;;;;;9.24;100.00;100263.63;5032947;28;20036;-69
2023/03/23 07:06:11;;;;;;;20.17;3.28;;;;;;;9.24;100.00;100267.13;5033527;28;20049;-69
2023/03/23 07:08:36;;;;;;;14.65;3.08;;;;;;;9.24;100.00;100261.81;5031812;28;20071;-69
2023/03/23 07:11:03;;;;;;;12.80;2.40;;;;;;;9.22;100.00;100255.81;5033101;28;20385;-70
2023/03/23 07:13:28;;;;;;;11.48;2.55;;;;;;;9.20;100.00;100263.09;5033226;28;20045;-69
2023/03/23 07:15:54;;;;;;;19.73;2.95;;;;;;;9.16;100.00;100259.88;5033088;28;20033;-69
2023/03/23 07:18:22;;;;;;;16.10;3.40;;;;;;;9.10;100.00;100262.28;5033200;28;20033;-69
2023/03/23 07:20:49;;;;;;;20.23;3.22;;;;;;;9.04;100.00;100257.53;5033167;28;20088;-70
2023/03/23 07:23:15;;;;;;;17.58;2.55;;;;;;;9.01;100.00;100263.97;5033449;28;20118;-69
2023/03/23 07:25:42;;;;;;;14.40;2.45;;;;;;;9.04;100.00;100276.13;5033168;28;20033;-69
2023/03/23 07:28:08;;;;;;;11.43;2.22;;;;;;;9.09;100.00;100269.41;5032714;28;20033;-70
2023/03/23 07:30:33;;;;;;;11.75;2.33;;;;;;;9.05;100.00;100259.22;5032759;28;20098;-69
2023/03/23 07:32:59;;;;;;;13.10;2.75;;;;;;;8.97;100.00;100252.81;5032569;28;20037;-69
2023/03/23 07:35:25;;;;;;;15.10;2.58;;;;;;;8.94;100.00;100247.78;5032956;28;20026;-70
2023/03/23 07:37:52;;;;;;;14.90;2.92;;;;;;;9.01;100.00;100263.97;5032318;28;20045;-69
2023/03/23 07:40:18;;;;;;;10.02;2.20;;;;;;;9.18;100.00;100254.41;5032714;28;20044;-70
2023/03/23 07:42:49;;;;;;;16.55;2.65;;;;;;;9.38;100.00;100257.88;5032597;28;20044;-69
2023/03/23 07:45:15;;;;;;;15.18;2.72;;;;;;;9.58;100.00;100261.25;5015058;28;20077;-69
2023/03/23 07:47:40;;;;;;;13.73;2.80;;;;;;;9.79;100.00;100266.34;5032966;28;20044;-69
2023/03/23 07:50:08;;;;;;;14.95;2.75;;;;;;;9.99;100.00;100260.94;5032384;28;20029;-70
2023/03/23 07:52:35;;;;;;;14.18;2.95;;;;;;;10.09;100.00;100271.47;5014625;28;20029;-69
2023/03/23 07:55:02;;;;;;;16.58;2.80;;;;;;;10.06;100.00;100264.63;5031965;28;20131;-69
2023/03/23 07:57:28;;;;;;;21.10;3.97;;;;;;;10.03;100.00;100273.75;5032280;28;20519;-69
2023/03/23 07:59:53;;;;;;;13.48;2.83;;;;;;;9.98;100.00;100277.84;5032318;28;20045;-69
2023/03/23 08:02:19;;;;;;;10.43;2.78;;;;;;;9.96;100.00;100282.50;5032264;28;20044;-69
2023/03/23 08:04:45;;;;;;;17.13;3.28;;;;;;;10.08;100.00;100289.25;5032552;28;20037;-68
2023/03/23 08:07:12;;;;;;;14.10;3.00;;;;;;;10.00;100.00;100291.81;5031783;28;20034;-70
2023/03/23 08:09:38;;;;;;;13.82;3.25;;;;;;;10.04;100.00;100294.03;5034216;28;20106;-70
2023/03/23 08:12:04;;;;;;;15.57;2.47;;;;;;;10.18;100.00;100294.50;5047066;28;20036;-69
2023/03/23 08:14:30;;;;;;;13.32;2.78;;;;;;;10.58;100.00;100303.91;5053984;28;20037;-69
2023/03/23 08:16:56;;;;;;;19.02;3.20;;;;;;;11.09;100.00;100309.47;5054516;28;20025;-69
2023/03/23 08:19:22;;;;;;;20.70;3.78;;;;;;;11.21;100.00;100300.28;5049446;28;20029;-69
2023/03/23 08:21:48;;;;;;;15.30;3.42;;;;;;;11.48;100.00;100309.09;5042484;28;20446;-68
2023/03/23 08:24:14;;;;;;;14.88;2.72;;;;;;;11.49;100.00;100307.25;5039264;28;20400;-69
2023/03/23 08:26:40;;;;;;;17.20;3.22;;;;;;;11.51;100.00;100311.44;5043352;28;20033;-70
2023/03/23 08:29:06;;;;;;;13.95;2.70;;;;;;;11.57;100.00;100304.63;5053474;28;20044;-71
2023/03/23 08:31:34;;;;;;;17.75;3.70;;;;;;;11.61;100.00;100306.84;5044366;28;20041;-69
2023/03/23 08:34:00;;;;;;;22.38;3.13;;;;;;;11.89;100.00;100311.94;5041168;28;20037;-69
2023/03/23 08:36:27;;;;;;;17.23;4.00;;;;;;;12.26;100.00;100318.75;5044798;28;20032;-70
2023/03/23 08:38:53;;;;;;;19.50;3.25;;;;;;;12.82;100.00;100336.84;5053658;28;20491;-69
2023/03/23 08:41:18;;;;;;;15.85;3.47;;;;;;;12.94;100.00;100340.88;5053540;28;20037;-69
2023/03/23 08:43:44;;;;;;;16.80;3.33;;;;;;;13.02;100.00;100308.84;5053767;28;20035;-69
2023/03/23 08:46:11;;;;;;;16.95;3.10;;;;;;;13.20;100.00;100308.66;5053221;28;20126;-69
2023/03/23 08:48:38;;;;;;;20.67;3.47;;;;;;;13.62;100.00;100313.94;5053561;28;20052;-69
2023/03/23 08:51:05;;;;;;;21.23;3.33;;;;;;;14.37;100.00;100318.75;5053171;28;20037;-69
2023/03/23 08:53:31;;;;;;;17.30;2.97;;;;;;;14.65;100.00;100320.16;5053441;28;20043;-70
2023/03/23 08:56:03;;;;;;;18.55;3.63;;;;;;;14.27;100.00;100323.50;5053104;28;20463;-69
2023/03/23 08:58:29;;;;;;;20.63;3.78;;;;;;;14.03;100.00;100313.75;5053601;28;20044;-69
2023/03/23 09:00:54;;;;;;;13.02;3.42;;;;;;;14.35;100.00;100320.78;5053360;28;20037;-71
2023/03/23 09:03:20;;;;;;;21.05;3.17;;;;;;;14.59;100.00;100319.78;5053659;28;20099;-70
2023/03/23 09:05:45;;;;;;;19.35;3.35;;;;;;;14.37;100.00;100317.94;5053311;28;20029;-70
2023/03/23 09:08:12;;;;;;;16.52;3.47;;;;;;;14.69;100.00;100322.28;5052658;28;20120;-71
2023/03/23 09:10:38;;;;;;;16.73;3.22;;;;;;;15.74;100.00;100315.25;5053007;28;20487;-70
2023/03/23 09:13:04;;;;;;;23.77;3.72;;;;;;;15.89;100.00;100328.69;5052746;28;20041;-70
2023/03/23 09:15:31;;;;;;;17.45;3.50;;;;;;;15.12;100.00;100327.97;5052990;28;20029;-71
2023/03/23 09:17:57;;;;;;;18.23;3.10;;;;;;;14.57;100.00;100312.94;5052879;28;20035;-72
2023/03/23 09:20:26;;;;;;;12.32;2.75;;;;;;;14.62;100.00;100316.78;5053141;28;20484;-71
2023/03/23 09:22:54;;;;;;;19.05;3.42;;;;;;;14.00;100.00;100311.44;5052780;28;20032;-71
2023/03/23 09:25:22;;;;;;;21.30;3.28;;;;;;;13.60;100.00;100337.31;5052241;28;20041;-71
2023/03/23 09:27:57;;;;;;;18.80;3.90;;;;;;;12.99;100.00;100316.34;5052579;28;20424;-70
2023/03/23 09:30:28;;;;;;;13.40;3.30;;;;;;;12.70;100.00;100331.88;5052535;28;20029;-71
2023/03/23 09:32:54;;;;;;;24.38;3.55;;;;;;;12.41;100.00;100331.47;5052814;28;20025;-69
2023/03/23 09:35:21;;;;;;;21.95;4.13;;;;;;;12.05;100.00;100332.53;5052294;28;20029;-69
2023/03/23 09:37:48;;;;;;;26.60;4.35;;;;;;;12.31;100.00;100337.78;5052727;28;20032;-70
2023/03/23 09:40:27;;;;;;;26.02;3.60;;;;;;;12.83;100.00;100338.53;5052352;28;20028;-69
2023/03/23 09:43:21;;;;;;;23.27;3.60;;;;;;;12.95;100.00;100350.56;5052589;28;20028;-69
2023/03/23 09:45:56;;;;;;;27.17;3.63;;;;;;;12.56;100.00;100353.03;5052608;28;20056;-71
2023/03/23 09:48:29;;;;;;;26.70;3.80;;;;;;;13.30;100.00;100347.69;5052004;28;20037;-70
2023/03/23 09:51:04;;;;;;;18.17;4.05;;;;;;;13.99;100.00;100350.75;5052544;28;20078;-71
2023/03/23 09:53:37;;;;;;;22.60;3.85;;;;;;;14.04;100.00;100350.22;5052535;28;20036;-71
2023/03/23 09:56:08;;;;;;;23.05;4.43;;;;;;;13.88;100.00;100362.66;5051947;28;20139;-71
2023/03/23 09:58:43;;;;;;;14.82;3.25;;;;;;;14.11;100.00;100362.72;5051892;28;20112;-71
2023/03/23 10:01:21;;;;;;;20.65;3.88;;;;;;;14.52;100.00;100363.53;5052235;28;20104;-71
2023/03/23 10:03:47;;;;;;;20.42;3.50;;;;;;;15.26;100.00;100360.34;5052332;28;20033;-70
2023/03/23 10:06:17;;;;;;;20.77;3.80;;;;;;;16.03;87.49;100356.50;5052006;28;20048;-70
2023/03/23 10:08:51;;;;;;;14.80;3.55;;;;;;;16.57;88.21;100366.06;5052194;28;20033;-71
2023/03/23 10:11:26;;;;;;;20.42;3.92;;;;;;;17.55;75.95;100368.19;5033636;28;20025;-71
2023/03/23 10:14:09;;;;;;;17.52;3.72;;;;;;;18.24;76.21;100374.59;5052023;28;20029;-70
2023/03/23 10:17:12;;;;;;;21.00;3.97;;;;;;;18.12;68.33;100374.31;5051986;28;20036;-71
2023/03/23 10:19:53;;;;;;;20.85;4.13;;;;;;;16.54;75.57;100372.63;5051962;28;20110;-70
2023/03/23 10:22:26;;;;;;;;;;;;;;;16.49;93.51;100369.66;5051706;28;20464;-70
2023/03/23 10:25:12;;;;;;;18.95;4.13;;;;;;;17.88;75.40;100375.63;5051535;28;19909;-71
2023/03/23 10:28:10;;;;;;;22.63;4.10;;;;;;;17.92;72.04;100363.47;5034167;28;20037;-71
2023/03/23 10:30:37;;;;;;;20.85;4.75;;;;;;;17.87;71.00;100366.72;5051773;28;20076;-71
2023/03/23 10:33:25;;;;;;;21.08;4.35;;;;;;;17.59;69.67;100367.59;5051849;28;20033;-70
2023/03/23 10:36:07;;;;;;;17.83;3.92;;;;;;;16.20;77.38;100366.03;5051105;28;20060;-70
2023/03/23 10:38:42;;;;;;;25.75;4.18;;;;;;;16.49;78.39;100376.91;5052206;28;20029;-70
2023/03/23 10:41:13;;;;;;;20.55;4.00;;;;;;;16.07;80.33;100379.28;5051236;28;20021;-70
2023/03/23 10:43:39;;;;;;;18.80;3.85;;;;;;;15.45;87.69;100378.59;5051435;28;20171;-70
2023/03/23 10:46:33;;;;;;;15.15;3.65;;;;;;;16.02;81.28;100385.22;5033434;28;20060;-72
2023/03/23 10:49:02;;;;;;;19.58;3.30;;;;;;;17.20;73.26;100389.63;5051632;28;20040;-70
2023/03/23 10:51:36;;;;;;;21.25;3.75;;;;;;;18.03;69.43;100381.72;5050942;28;20029;-70
2023/03/23 10:54:04;;;;;;;18.42;3.58;;;;;;;18.99;59.57;100370.03;5051428;28;20036;-70
2023/03/23 10:56:41;;;;;;;19.42;4.03;;;;;;;19.06;59.62;100361.13;5051184;28;20040;-71
2023/03/23 10:59:21;;;;;;;18.20;3.88;;;;;;;19.63;57.61;100370.44;5051545;28;20028;-72
2023/03/23 11:01:53;;;;;;;22.05;3.78;;;;;;;20.68;53.35;100376.75;5051540;28;20029;-70
2023/03/23 11:04:19;;;;;;;13.15;4.03;;;;;;;20.28;54.22;100368.81;5050826;28;20025;-70
2023/03/23 11:07:00;;;;;;;22.95;3.65;;;;;;;20.10;54.05;100358.72;5051445;28;20033;-70
2023/03/23 11:09:51;;;;;;;13.63;3.67;;;;;;;20.73;51.54;100371.53;5051096;28;20025;-70
2023/03/23 11:12:18;;;;;;;11.57;3.53;;;;;;;20.76;50.60;100352.97;5050991;28;20041;-70
2023/03/23 11:14:45;;;;;;;15.32;3.15;;;;;;;21.20;50.98;100371.16;5051200;28;20095;-69
2023/03/23 11:17:21;;;;;;;14.68;3.40;;;;;;;20.10;51.09;100367.66;5050892;28;20040;-69
2023/03/23 11:19:46;;;;;;;15.73;3.63;;;;;;;20.12;51.69;100372.81;5051220;28;20029;-69
2023/03/23 11:22:33;;;;;;;14.88;3.38;;;;;;;20.10;52.98;100366.81;5050986;28;20412;-69
2023/03/23 11:25:04;;;;;;;14.50;3.45;;;;;;;20.06;55.74;100375.34;5051218;28;20054;-69
2023/03/23 11:27:30;;;;;;;13.25;3.10;;;;;;;19.55;52.35;100360.69;5050867;28;20029;-69
2023/03/23 11:29:56;;;;;;;12.02;3.13;;;;;;;19.79;54.20;100355.69;5051131;28;20079;-68